Time;durP1;ratioP1;P1;durP2;ratioP2;P2;SDS_P1;SDS_P2;PMS_P1;PMS_P2;Temp;Humidity;BMP_temperature;BMP_pressure;BME280_temperature;BME280_humidity;BME280_pressure;Samples;Min_cycle;Max_cycle;Signal;HPM_P1;HPM_P2
2023/08/20 00:01:39;;;;;;;0.93;0.93;;;;;;;24.16;68.11;100180.03;4363764;32;33286;-91
2023/08/20 00:04:09;;;;;;;1.35;1.12;;;;;;;24.22;67.92;100179.47;4376202;32;33626;-92
2023/08/20 00:06:38;;;;;;;6.65;2.03;;;;;;;24.22;67.85;100171.38;4377037;32;33865;-92
2023/08/20 00:09:08;;;;;;;2.17;1.55;;;;;;;24.23;67.65;100174.94;4389008;32;32893;-92
2023/08/20 00:11:39;;;;;;;1.33;1.23;;;;;;;24.26;67.37;100180.88;4365293;32;32653;-91
2023/08/20 00:14:07;;;;;;;1.87;1.40;;;;;;;24.21;67.36;100172.37;4363735;32;33222;-91
2023/08/20 00:16:35;;;;;;;2.08;1.70;;;;;;;24.17;67.12;100170.97;4376098;32;33746;-91
2023/08/20 00:19:05;;;;;;;2.30;1.08;;;;;;;23.98;68.53;100173.69;4351525;32;33134;-92
2023/08/20 00:21:42;;;;;;;1.33;1.08;;;;;;;24.13;67.83;100174.09;4376890;32;32654;-91
2023/08/20 00:24:12;;;;;;;2.85;2.08;;;;;;;24.10;68.08;100166.28;4365039;32;33200;-93
2023/08/20 00:26:52;;;;;;;1.27;1.17;;;;;;;24.07;68.13;100175.53;4393188;32;32749;-92
2023/08/20 00:29:24;;;;;;;1.75;1.45;;;;;;;24.02;68.09;100169.69;4395465;32;31941;-92
2023/08/20 00:32:07;;;;;;;2.47;1.95;;;;;;;23.98;68.13;100166.44;4378044;32;32786;-92
2023/08/20 00:34:49;;;;;;;1.27;1.17;;;;;;;24.00;68.01;100167.16;4398107;32;32900;-92
2023/08/20 00:37:40;;;;;;;1.52;1.25;;;;;;;23.93;68.37;100163.34;4391252;32;32747;-91
2023/08/20 00:40:17;;;;;;;0.90;0.90;;;;;;;24.05;68.00;100171.25;4394409;32;32717;-91
2023/08/20 00:43:25;;;;;;;1.08;1.08;;;;;;;24.11;67.62;100162.59;4385916;32;32923;-92
2023/08/20 00:46:01;;;;;;;1.30;1.20;;;;;;;24.13;67.68;100163.31;4405433;32;32747;-91
2023/08/20 00:48:52;;;;;;;1.45;1.35;;;;;;;24.12;67.56;100166.97;4352330;32;32615;-92
2023/08/20 00:51:39;;;;;;;1.17;1.15;;;;;;;24.02;68.02;100167.00;4334468;33;32558;-92
2023/08/20 00:54:40;;;;;;;1.40;1.30;;;;;;;23.95;68.06;100158.63;4343632;32;32505;-90
2023/08/20 00:57:08;;;;;;;8.50;2.65;;;;;;;23.95;68.03;100160.50;4375230;32;33577;-90
2023/08/20 00:59:38;;;;;;;5.20;2.10;;;;;;;23.82;68.52;100159.94;4366373;32;33306;-89
2023/08/20 01:02:05;;;;;;;1.85;1.73;;;;;;;23.88;67.92;100170.13;4375037;32;33291;-89
2023/08/20 01:04:34;;;;;;;1.20;1.15;;;;;;;23.90;68.17;100165.47;4374554;32;32731;-89
2023/08/20 01:07:14;;;;;;;1.17;1.08;;;;;;;23.87;68.34;100168.44;4374545;32;32850;-89
2023/08/20 01:09:49;;;;;;;1.85;1.08;;;;;;;23.95;68.09;100165.87;4356054;32;34514;-89
2023/08/20 01:12:18;;;;;;;2.33;1.05;;;;;;;23.96;68.04;100164.88;4370678;32;32620;-90
2023/08/20 01:14:46;;;;;;;2.45;1.05;;;;;;;23.96;67.87;100170.28;4374579;32;32765;-89
2023/08/20 01:17:13;;;;;;;3.85;1.15;;;;;;;23.92;68.04;100166.16;4374106;32;34281;-89
2023/08/20 01:19:42;;;;;;;0.88;0.68;;;;;;;23.94;67.99;100164.19;4362008;32;33184;-90
2023/08/20 01:22:29;;;;;;;0.73;0.73;;;;;;;23.86;68.24;100161.34;4374936;32;31919;-91
2023/08/20 01:25:12;;;;;;;1.75;1.65;;;;;;;23.89;68.09;100169.16;4374695;32;32919;-91
2023/08/20 01:27:53;;;;;;;1.92;1.50;;;;;;;23.98;67.81;100176.41;4348089;32;33103;-91
2023/08/20 01:30:24;;;;;;;2.83;1.17;;;;;;;23.90;67.87;100176.25;4362410;32;33225;-91
2023/08/20 01:32:54;;;;;;;1.95;1.80;;;;;;;23.88;67.68;100178.22;4374814;32;33381;-90
2023/08/20 01:35:25;;;;;;;1.55;1.45;;;;;;;23.87;67.88;100173.84;4373230;32;34055;-91
2023/08/20 01:38:14;;;;;;;1.60;1.20;;;;;;;23.86;67.76;100177.53;4372477;32;33333;-91
2023/08/20 01:40:44;;;;;;;1.58;1.48;;;;;;;24.22;66.00;100182.16;4362220;32;32749;-90
2023/08/20 01:43:12;;;;;;;0.98;0.68;;;;;;;23.92;66.98;100176.94;4374111;32;32183;-90
2023/08/20 01:45:40;;;;;;;0.82;0.82;;;;;;;23.81;67.41;100171.72;4365666;32;32377;-90
2023/08/20 01:48:10;;;;;;;1.02;1.02;;;;;;;23.74;67.71;100172.28;4374854;32;32728;-90
2023/08/20 01:50:55;;;;;;;1.05;1.05;;;;;;;23.83;67.65;100178.66;4375599;32;33043;-91
2023/08/20 01:53:24;;;;;;;2.55;1.58;;;;;;;23.72;68.05;100176.13;4375045;32;33912;-90
2023/08/20 01:55:52;;;;;;;1.25;1.00;;;;;;;23.72;68.13;100181.50;4347557;32;33100;-90
2023/08/20 01:58:41;;;;;;;1.70;1.52;;;;;;;23.76;67.89;100175.69;4374109;32;32897;-90
2023/08/20 02:01:10;;;;;;;1.40;1.33;;;;;;;23.70;68.06;100178.12;4375315;32;33522;-90
2023/08/20 02:03:58;;;;;;;3.95;1.75;;;;;;;23.75;67.67;100174.00;4361558;32;33286;-91
2023/08/20 02:06:40;;;;;;;1.87;1.73;;;;;;;23.77;67.47;100174.69;4387561;32;33107;-92
2023/08/20 02:09:41;;;;;;;1.62;1.52;;;;;;;23.58;68.33;100180.03;4379886;32;32874;-91
2023/08/20 02:12:20;;;;;;;1.35;1.25;;;;;;;23.61;68.51;100173.53;4373278;32;34726;-92
2023/08/20 02:15:12;;;;;;;1.85;1.52;;;;;;;23.59;68.39;100178.19;4364115;32;32406;-92
2023/08/20 02:18:04;;;;;;;1.75;1.65;;;;;;;23.58;68.30;100174.66;4360968;32;32682;-92
2023/08/20 02:20:43;;;;;;;1.05;1.02;;;;;;;23.58;68.21;100166.56;4374043;32;33006;-93
2023/08/20 02:23:34;;;;;;;3.62;1.40;;;;;;;23.52;68.10;100162.59;4367459;32;33729;-92
2023/08/20 02:26:02;;;;;;;0.95;0.95;;;;;;;23.60;67.93;100166.44;4355355;32;32914;-91
2023/08/20 02:28:43;;;;;;;2.87;2.17;;;;;;;23.63;67.88;100166.16;4347180;32;33130;-90
2023/08/20 02:31:10;;;;;;;0.85;0.85;;;;;;;23.63;67.89;100168.84;4357099;32;32644;-90
2023/08/20 02:33:42;;;;;;;0.73;0.73;;;;;;;23.58;68.00;100171.12;4355815;32;33391;-90
2023/08/20 02:36:30;;;;;;;1.45;1.23;;;;;;;23.49;68.03;100164.72;4353190;32;32017;-89
2023/08/20 02:38:58;;;;;;;0.82;0.77;;;;;;;23.48;68.30;100163.03;4354392;32;34313;-88
2023/08/20 02:41:26;;;;;;;1.52;1.42;;;;;;;23.50;68.18;100166.44;4356677;32;34714;-88
2023/08/20 02:43:54;;;;;;;1.85;1.40;;;;;;;23.46;68.34;100160.47;4355843;32;34015;-89
2023/08/20 02:46:22;;;;;;;1.83;1.73;;;;;;;23.46;68.49;100165.03;4332093;33;33514;-88
2023/08/20 02:48:50;;;;;;;1.23;1.12;;;;;;;23.42;68.39;100160.91;4356803;32;33486;-88
2023/08/20 02:51:18;;;;;;;1.98;1.83;;;;;;;23.44;68.33;100164.28;4344531;33;32905;-89
2023/08/20 02:53:46;;;;;;;1.20;1.10;;;;;;;23.53;68.13;100168.84;4356650;32;33935;-89
2023/08/20 02:56:13;;;;;;;1.50;1.23;;;;;;;23.51;68.12;100162.75;4367652;32;32761;-89
2023/08/20 02:58:41;;;;;;;1.70;1.50;;;;;;;23.48;68.33;100165.72;4356798;32;34551;-89
2023/08/20 03:01:18;;;;;;;1.23;1.20;;;;;;;23.39;68.26;100164.72;4356157;32;33175;-89
2023/08/20 03:03:47;;;;;;;0.60;0.60;;;;;;;23.31;68.45;100169.09;4354137;32;32790;-89
2023/08/20 03:06:15;;;;;;;1.42;1.33;;;;;;;23.35;68.33;100163.28;4342356;33;32860;-89
2023/08/20 03:08:43;;;;;;;0.57;0.57;;;;;;;23.34;68.20;100166.97;4352487;32;32733;-89
2023/08/20 03:11:11;;;;;;;1.70;1.10;;;;;;;23.38;68.01;100165.72;4331995;33;33606;-89
2023/08/20 03:13:39;;;;;;;0.82;0.50;;;;;;;23.36;68.09;100165.03;4356565;32;33406;-89
2023/08/20 03:16:07;;;;;;;6.15;1.98;;;;;;;23.36;68.13;100169.53;4355918;32;33319;-89
2023/08/20 03:18:35;;;;;;;1.65;1.10;;;;;;;23.32;68.04;100168.12;4356412;32;32344;-89
2023/08/20 03:21:03;;;;;;;4.05;1.23;;;;;;;23.24;68.27;100166.97;4354332;32;34179;-89
2023/08/20 03:23:30;;;;;;;3.53;2.05;;;;;;;23.32;68.30;100176.22;4353895;32;33819;-89
2023/08/20 03:25:59;;;;;;;2.00;1.85;;;;;;;23.34;68.30;100171.53;4350773;32;32326;-89
2023/08/20 03:28:27;;;;;;;1.45;1.10;;;;;;;23.36;68.17;100174.91;4356345;32;33612;-89
2023/08/20 03:30:54;;;;;;;1.60;1.35;;;;;;;23.37;68.16;100176.66;4343772;33;33496;-89
2023/08/20 03:33:24;;;;;;;1.23;0.95;;;;;;;23.39;67.95;100174.66;4343649;33;32937;-89
2023/08/20 03:35:53;;;;;;;2.37;2.17;;;;;;;23.37;68.17;100176.66;4354221;32;32940;-88
2023/08/20 03:38:23;;;;;;;2.58;1.15;;;;;;;23.23;68.46;100178.75;4356071;32;34523;-89
2023/08/20 03:40:50;;;;;;;2.15;1.77;;;;;;;23.33;68.04;100177.91;4366195;32;33598;-89
2023/08/20 03:43:18;;;;;;;1.70;1.60;;;;;;;23.24;68.03;100183.13;4354366;32;33704;-89
2023/08/20 03:45:51;;;;;;;1.45;1.25;;;;;;;23.24;68.00;100185.81;4355375;32;33152;-89
2023/08/20 03:48:20;;;;;;;1.48;1.37;;;;;;;23.55;66.60;100185.75;4352187;32;33122;-90
2023/08/20 03:50:48;;;;;;;3.05;2.00;;;;;;;23.33;67.09;100192.22;4369059;32;32957;-88
2023/08/20 03:53:16;;;;;;;0.95;0.95;;;;;;;23.29;67.34;100184.56;4355754;32;32746;-88
2023/08/20 03:55:48;;;;;;;1.33;1.15;;;;;;;23.21;67.82;100194.19;4331255;33;33027;-88
2023/08/20 03:58:16;;;;;;;1.73;1.62;;;;;;;23.17;68.15;100198.16;4353604;32;33864;-88
2023/08/20 04:00:44;;;;;;;2.45;1.98;;;;;;;23.14;68.04;100198.44;4344094;33;33098;-87
2023/08/20 04:03:13;;;;;;;0.68;0.68;;;;;;;23.12;68.20;100208.50;4343665;33;32749;-89
2023/08/20 04:05:41;;;;;;;0.85;0.85;;;;;;;23.16;67.96;100201.81;4341455;33;32608;-89
2023/08/20 04:08:09;;;;;;;2.33;2.15;;;;;;;23.06;68.45;100209.03;4342386;33;33593;-89
2023/08/20 04:10:44;;;;;;;3.33;2.00;;;;;;;23.12;68.05;100208.50;4366500;32;32507;-89
2023/08/20 04:13:13;;;;;;;1.80;1.62;;;;;;;23.13;68.26;100210.19;4356734;32;32697;-89
2023/08/20 04:15:42;;;;;;;0.85;0.85;;;;;;;23.14;68.12;100211.03;4356727;32;32775;-89
2023/08/20 04:18:10;;;;;;;2.70;0.77;;;;;;;23.15;68.10;100213.59;4356150;32;33065;-89
2023/08/20 04:20:38;;;;;;;1.42;1.30;;;;;;;23.09;68.53;100211.47;4353781;32;33389;-89
2023/08/20 04:23:06;;;;;;;0.55;0.55;;;;;;;23.17;68.50;100203.56;4357290;32;32226;-89
2023/08/20 04:25:34;;;;;;;2.25;1.48;;;;;;;23.14;68.45;100211.03;4357649;32;32031;-89
2023/08/20 04:28:02;;;;;;;1.52;1.42;;;;;;;23.40;67.68;100205.97;4357542;32;34729;-89
2023/08/20 04:30:30;;;;;;;3.67;1.42;;;;;;;23.37;67.31;100206.28;4345616;33;34032;-89
2023/08/20 04:32:58;;;;;;;1.87;1.77;;;;;;;23.23;68.05;100213.75;4345478;33;33331;-88
2023/08/20 04:35:27;;;;;;;0.75;0.75;;;;;;;23.21;68.44;100215.72;4344652;33;32551;-88
2023/08/20 04:37:55;;;;;;;3.58;0.75;;;;;;;23.53;67.34;100214.66;4343343;33;33853;-88
2023/08/20 04:40:23;;;;;;;1.50;1.40;;;;;;;23.38;68.05;100218.75;4355653;32;33321;-88
2023/08/20 04:42:51;;;;;;;2.25;2.05;;;;;;;23.45;68.37;100222.59;4367584;32;33571;-88
2023/08/20 04:45:20;;;;;;;1.92;1.58;;;;;;;23.46;68.31;100219.78;4330853;33;31985;-88
2023/08/20 04:47:48;;;;;;;0.93;0.93;;;;;;;23.49;68.49;100224.00;4365664;32;34367;-89
2023/08/20 04:50:16;;;;;;;2.65;1.95;;;;;;;23.47;68.73;100226.00;4357773;32;32600;-88
2023/08/20 04:52:48;;;;;;;1.50;1.25;;;;;;;23.86;67.39;100220.69;4355259;32;32581;-88
2023/08/20 04:55:15;;;;;;;0.98;0.93;;;;;;;23.94;67.30;100223.53;4358170;32;32792;-89
2023/08/20 04:57:43;;;;;;;4.00;2.03;;;;;;;23.88;67.62;100219.56;4370711;32;33224;-88
2023/08/20 05:00:12;;;;;;;5.03;1.30;;;;;;;24.05;67.47;100219.81;4333508;33;32757;-88
2023/08/20 05:02:40;;;;;;;0.90;0.70;;;;;;;23.99;67.97;100226.66;4358201;32;33210;-89
2023/08/20 05:05:10;;;;;;;2.12;1.98;;;;;;;23.99;68.18;100224.78;4342877;33;33308;-92
2023/08/20 05:08:02;;;;;;;3.47;1.23;;;;;;;23.98;68.08;100233.87;4357321;32;33003;-93
2023/08/20 05:10:42;;;;;;;2.60;1.92;;;;;;;24.29;67.32;100233.69;4375207;32;33933;-91
2023/08/20 05:13:32;;;;;;;0.93;0.93;;;;;;;24.46;66.67;100229.44;4345479;32;33019;-93
2023/08/20 05:16:11;;;;;;;1.58;1.42;;;;;;;24.53;66.68;100226.00;4373781;32;32598;-93
2023/08/20 05:19:02;;;;;;;2.97;2.40;;;;;;;24.54;66.93;100229.53;4372836;32;32751;-93
2023/08/20 05:21:55;;;;;;;1.25;1.17;;;;;;;24.69;66.66;100228.09;4340197;32;20822;-92
2023/08/20 05:24:46;;;;;;;1.55;1.45;;;;;;;24.76;66.00;100228.34;4365667;32;33365;-92
2023/08/20 05:27:37;;;;;;;2.58;1.87;;;;;;;25.00;65.01;100235.94;4334705;33;32097;-92
2023/08/20 05:30:28;;;;;;;1.05;0.98;;;;;;;24.98;65.85;100229.84;4372326;32;33430;-92
2023/08/20 05:33:08;;;;;;;1.25;1.12;;;;;;;25.14;65.96;100231.91;4360381;32;32673;-91
2023/08/20 05:36:00;;;;;;;1.10;1.10;;;;;;;25.25;65.73;100232.56;4367685;32;32969;-91
2023/08/20 05:38:42;;;;;;;1.67;1.58;;;;;;;25.42;65.32;100230.06;4365194;32;32952;-92
2023/08/20 05:41:33;;;;;;;1.05;1.02;;;;;;;25.58;65.16;100232.06;4358945;32;33605;-91
2023/08/20 05:44:03;;;;;;;2.00;1.10;;;;;;;25.76;64.72;100225.69;4348357;32;34221;-89
2023/08/20 05:46:31;;;;;;;1.83;0.90;;;;;;;25.73;64.72;100235.94;4348247;33;33885;-90
2023/08/20 05:48:59;;;;;;;0.37;0.37;;;;;;;25.89;63.64;100241.56;4347740;33;33296;-90
2023/08/20 05:51:27;;;;;;;0.98;0.90;;;;;;;25.97;63.57;100240.75;4347767;33;32850;-90
2023/08/20 05:53:55;;;;;;;1.02;1.02;;;;;;;25.98;62.40;100237.06;4347581;32;33063;-89
2023/08/20 05:56:23;;;;;;;2.12;1.92;;;;;;;26.16;61.78;100242.44;4334703;33;32656;-90
2023/08/20 05:58:51;;;;;;;1.05;1.05;;;;;;;26.29;60.36;100238.31;4335177;33;32233;-89
2023/08/20 06:01:19;;;;;;;5.90;1.50;;;;;;;26.41;59.39;100235.38;4347117;33;33099;-90
2023/08/20 06:03:47;;;;;;;1.17;1.10;;;;;;;26.49;59.33;100238.16;4348008;32;33294;-90
2023/08/20 06:06:15;;;;;;;1.52;1.42;;;;;;;26.65;59.46;100246.41;4347507;33;33053;-88
2023/08/20 06:08:42;;;;;;;1.50;0.80;;;;;;;26.79;57.92;100240.41;4347917;33;32347;-89
2023/08/20 06:11:25;;;;;;;1.37;0.93;;;;;;;26.85;58.17;100248.88;4349326;32;34361;-89
2023/08/20 06:13:53;;;;;;;1.58;1.00;;;;;;;27.09;57.52;100246.31;4335204;33;33791;-89
2023/08/20 06:16:21;;;;;;;0.82;0.82;;;;;;;27.21;56.76;100250.44;4359915;32;33876;-89
2023/08/20 06:18:49;;;;;;;2.03;1.83;;;;;;;27.14;56.59;100254.81;4347859;33;32771;-89
2023/08/20 06:21:17;;;;;;;1.67;1.58;;;;;;;27.37;56.04;100249.66;4347567;32;33289;-89
2023/08/20 06:23:45;;;;;;;2.17;1.30;;;;;;;27.49;55.26;100251.06;4347731;32;33244;-90
2023/08/20 06:26:13;;;;;;;0.93;0.82;;;;;;;27.60;55.45;100249.88;4347828;32;33365;-90
2023/08/20 06:28:41;;;;;;;1.62;1.52;;;;;;;27.78;55.33;100253.34;4347199;32;33380;-90
2023/08/20 06:31:09;;;;;;;1.67;1.55;;;;;;;28.02;54.54;100255.25;4347295;32;33427;-92
2023/08/20 06:34:04;;;;;;;2.17;1.40;;;;;;;27.89;55.64;100254.88;4326428;33;32778;-92
2023/08/20 06:36:49;;;;;;;1.45;1.35;;;;;;;27.90;56.10;100247.59;4338891;33;32826;-91
2023/08/20 06:39:39;;;;;;;0.80;0.80;;;;;;;28.03;55.89;100239.81;4317025;33;33625;-91
2023/08/20 06:42:07;;;;;;;1.20;1.10;;;;;;;28.40;55.15;100242.03;4328133;33;32875;-91
2023/08/20 06:44:36;;;;;;;1.40;1.00;;;;;;;28.55;55.02;100245.75;4326846;33;32971;-87
2023/08/20 06:47:04;;;;;;;1.08;1.05;;;;;;;28.75;54.13;100248.91;4320215;33;32670;-90
2023/08/20 06:49:33;;;;;;;2.97;1.00;;;;;;;29.04;53.35;100247.50;4340520;33;31876;-90
2023/08/20 06:52:01;;;;;;;1.50;1.40;;;;;;;29.21;52.85;100251.84;4331644;33;33220;-92
2023/08/20 06:54:44;;;;;;;4.85;1.33;;;;;;;29.17;53.38;100242.34;4370194;32;32901;-92
2023/08/20 06:57:35;;;;;;;1.15;1.05;;;;;;;29.51;53.18;100238.44;4367233;32;32973;-93
2023/08/20 07:00:23;;;;;;;0.95;0.95;;;;;;;29.63;51.20;100244.37;4363570;32;32558;-93
2023/08/20 07:03:17;;;;;;;2.00;1.42;;;;;;;29.76;51.04;100237.28;4396188;32;33571;-92
2023/08/20 07:06:01;;;;;;;1.77;1.60;;;;;;;29.71;50.93;100244.28;4382480;32;33198;-92
2023/08/20 07:08:52;;;;;;;1.35;1.20;;;;;;;29.87;50.21;100243.34;4370873;32;32840;-92
2023/08/20 07:11:36;;;;;;;1.52;1.10;;;;;;;30.22;50.28;100245.47;4400120;32;32598;-90
2023/08/20 07:14:24;;;;;;;1.98;1.25;;;;;;;30.18;50.47;100244.13;4382914;32;32510;-88
2023/08/20 07:16:52;;;;;;;1.85;1.75;;;;;;;30.09;50.27;100237.03;4378180;32;33903;-88
2023/08/20 07:19:20;;;;;;;1.92;1.60;;;;;;;30.42;51.40;100234.06;4392945;32;32928;-89
2023/08/20 07:21:47;;;;;;;0.77;0.77;;;;;;;30.32;51.52;100247.94;4379817;32;33256;-88
2023/08/20 07:24:15;;;;;;;0.65;0.65;;;;;;;30.49;51.61;100246.75;4378584;32;33850;-89
2023/08/20 07:26:43;;;;;;;1.05;1.02;;;;;;;30.64;50.40;100244.06;4380386;32;32989;-89
2023/08/20 07:29:11;;;;;;;1.42;1.33;;;;;;;30.78;50.15;100239.69;4405641;32;32859;-88
2023/08/20 07:31:39;;;;;;;1.65;1.02;;;;;;;30.73;50.43;100244.84;4374894;32;31821;-88
2023/08/20 07:34:07;;;;;;;3.22;1.85;;;;;;;30.67;50.26;100249.12;4390007;32;33612;-89
2023/08/20 07:36:40;;;;;;;1.25;1.15;;;;;;;30.89;49.96;100243.81;4393926;32;32765;-89
2023/08/20 07:39:08;;;;;;;1.40;0.70;;;;;;;31.09;49.65;100239.47;4397596;32;33300;-88
2023/08/20 07:41:36;;;;;;;1.67;1.00;;;;;;;31.33;49.14;100246.50;4396065;32;31928;-89
2023/08/20 07:44:04;;;;;;;1.20;1.08;;;;;;;31.21;49.01;100240.69;4394241;32;33384;-89
2023/08/20 07:46:32;;;;;;;1.40;1.23;;;;;;;31.39;48.58;100256.69;4368505;32;33465;-88
2023/08/20 07:48:59;;;;;;;2.20;1.37;;;;;;;31.41;49.45;100246.41;4385063;32;33568;-89
2023/08/20 07:51:27;;;;;;;2.10;1.90;;;;;;;31.50;50.17;100245.25;4396188;32;33125;-89
2023/08/20 07:53:55;;;;;;;2.30;2.10;;;;;;;31.73;50.50;100250.56;4385160;32;34186;-89
2023/08/20 07:56:23;;;;;;;6.55;2.00;;;;;;;31.33;50.37;100251.97;4399244;32;33315;-89
2023/08/20 07:58:51;;;;;;;1.90;1.77;;;;;;;31.43;49.46;100248.94;4392600;32;35117;-88
2023/08/20 08:01:18;;;;;;;4.37;1.90;;;;;;;31.55;49.19;100250.16;4378386;32;32761;-88
2023/08/20 08:03:51;;;;;;;1.80;1.50;;;;;;;31.65;49.17;100252.56;4390019;32;32772;-89
2023/08/20 08:06:22;;;;;;;1.55;1.45;;;;;;;31.91;48.82;100246.59;4394244;32;34066;-88
2023/08/20 08:08:50;;;;;;;1.33;1.20;;;;;;;32.04;48.24;100250.25;4389390;32;33685;-88
2023/08/20 08:11:18;;;;;;;2.08;1.92;;;;;;;31.69;47.70;100254.72;4393691;32;32668;-89
2023/08/20 08:13:46;;;;;;;1.20;1.10;;;;;;;31.33;47.93;100244.66;4393307;32;32840;-89
2023/08/20 08:16:14;;;;;;;1.80;1.67;;;;;;;31.96;48.00;100246.84;4390599;32;33009;-89
2023/08/20 08:18:42;;;;;;;2.78;2.10;;;;;;;31.57;48.26;100253.53;4378566;32;33881;-89
2023/08/20 08:21:09;;;;;;;1.65;1.55;;;;;;;31.83;47.32;100253.84;4384541;32;33971;-89
2023/08/20 08:23:37;;;;;;;6.85;1.62;;;;;;;31.61;47.82;100257.56;4395405;32;32850;-88
2023/08/20 08:26:05;;;;;;;1.55;1.45;;;;;;;31.93;47.64;100248.06;4396646;32;33918;-89
2023/08/20 08:28:33;;;;;;;5.15;1.73;;;;;;;32.34;47.04;100252.88;4376920;32;33177;-89
2023/08/20 08:31:01;;;;;;;2.85;1.77;;;;;;;32.56;47.15;100246.31;4398053;32;33241;-89
2023/08/20 08:33:30;;;;;;;2.28;1.33;;;;;;;32.46;45.87;100251.28;4370335;32;32647;-88
2023/08/20 08:35:58;;;;;;;1.12;1.02;;;;;;;32.51;46.95;100250.69;4394929;32;33281;-88
2023/08/20 08:38:25;;;;;;;6.62;1.98;;;;;;;32.24;47.08;100250.47;4377433;32;34087;-89
2023/08/20 08:40:55;;;;;;;2.05;1.77;;;;;;;32.59;46.75;100250.56;4397594;32;33395;-88
2023/08/20 08:43:23;;;;;;;1.33;1.23;;;;;;;32.78;46.69;100249.84;4384562;32;31691;-88
2023/08/20 08:45:52;;;;;;;1.83;1.73;;;;;;;32.91;45.46;100242.81;4388637;32;34077;-89
2023/08/20 08:48:20;;;;;;;1.85;1.70;;;;;;;32.80;45.64;100253.22;4403364;32;33080;-89
2023/08/20 08:50:49;;;;;;;2.37;2.17;;;;;;;32.75;46.04;100249.41;4366940;32;33184;-88
2023/08/20 08:53:17;;;;;;;1.25;1.02;;;;;;;32.66;46.17;100248.69;4391197;32;34204;-89
2023/08/20 08:55:45;;;;;;;1.27;1.17;;;;;;;32.88;45.65;100250.31;4389319;32;34485;-88
2023/08/20 08:58:15;;;;;;;0.93;0.93;;;;;;;33.17;44.50;100248.41;4391620;32;33826;-89
2023/08/20 09:00:43;;;;;;;2.33;1.67;;;;;;;33.38;43.42;100245.56;4405413;32;32327;-89
2023/08/20 09:03:10;;;;;;;1.35;1.00;;;;;;;33.24;44.89;100243.81;4384198;32;33350;-88
2023/08/20 09:05:48;;;;;;;1.42;1.33;;;;;;;33.27;44.33;100246.12;4392492;32;32857;-89
2023/08/20 09:08:27;;;;;;;1.77;1.23;;;;;;;33.50;43.56;100247.72;4391500;32;33641;-89
2023/08/20 09:10:57;;;;;;;5.50;2.00;;;;;;;33.41;43.89;100254.41;4394683;32;31445;-89
2023/08/20 09:13:46;;;;;;;2.00;1.87;;;;;;;33.57;42.80;100254.91;4381262;32;33549;-88
2023/08/20 09:16:13;;;;;;;1.48;1.40;;;;;;;33.44;43.81;100254.88;4380477;32;35484;-89
2023/08/20 09:18:44;;;;;;;2.50;2.03;;;;;;;33.59;44.21;100251.97;4380075;32;33695;-88
2023/08/20 09:21:13;;;;;;;1.37;1.27;;;;;;;33.41;44.63;100248.91;4394577;32;32222;-89
2023/08/20 09:23:45;;;;;;;2.53;2.33;;;;;;;33.64;41.81;100250.28;4394278;32;33832;-88
2023/08/20 09:26:14;;;;;;;1.58;1.48;;;;;;;34.12;40.97;100246.63;4390577;32;33555;-89
2023/08/20 09:28:44;;;;;;;3.00;1.87;;;;;;;34.21;39.82;100253.56;4385679;32;33362;-89
2023/08/20 09:31:12;;;;;;;1.65;1.50;;;;;;;34.09;41.69;100252.53;4398636;32;32063;-89
2023/08/20 09:33:51;;;;;;;1.80;1.70;;;;;;;33.93;42.21;100259.19;4386742;32;33794;-89
2023/08/20 09:36:28;;;;;;;2.22;1.62;;;;;;;33.49;42.58;100251.53;4380193;32;33901;-88
2023/08/20 09:38:56;;;;;;;1.73;1.62;;;;;;;33.87;41.40;100249.94;4393507;32;33722;-88
2023/08/20 09:41:25;;;;;;;3.75;2.40;;;;;;;34.10;41.26;100252.31;4401096;32;33307;-89
2023/08/20 09:43:56;;;;;;;1.23;1.15;;;;;;;34.27;39.12;100254.63;4379323;32;32484;-88
2023/08/20 09:46:26;;;;;;;1.62;1.52;;;;;;;34.32;39.77;100250.19;4391818;32;34580;-89
2023/08/20 09:48:57;;;;;;;2.10;1.50;;;;;;;34.23;39.06;100246.00;4395474;32;33151;-89
2023/08/20 09:51:28;;;;;;;1.95;1.75;;;;;;;34.65;38.61;100241.13;4377154;32;32275;-90
2023/08/20 09:54:00;;;;;;;2.58;1.77;;;;;;;34.81;38.05;100235.22;4400889;32;32742;-90
2023/08/20 09:56:29;;;;;;;1.80;1.70;;;;;;;34.58;39.07;100245.81;4404170;32;33894;-90
2023/08/20 09:59:00;;;;;;;2.60;1.08;;;;;;;34.41;39.08;100239.88;4395023;32;33029;-90
2023/08/20 10:01:30;;;;;;;2.65;1.45;;;;;;;34.55;39.17;100246.22;4402970;32;32145;-90
2023/08/20 10:03:58;;;;;;;3.67;1.85;;;;;;;35.11;38.28;100234.72;4394156;32;33167;-89
2023/08/20 10:06:27;;;;;;;1.23;1.10;;;;;;;35.18;39.60;100238.28;4380905;32;32559;-88
2023/08/20 10:08:55;;;;;;;1.35;1.20;;;;;;;35.36;37.64;100235.66;4386035;32;33461;-90
2023/08/20 10:11:23;;;;;;;1.58;1.02;;;;;;;35.14;38.81;100235.12;4393443;32;33825;-90
2023/08/20 10:13:50;;;;;;;1.55;1.45;;;;;;;34.90;39.53;100233.91;4396647;32;32802;-90
2023/08/20 10:16:23;;;;;;;1.42;1.33;;;;;;;35.15;40.43;100228.59;4386608;32;32538;-90
2023/08/20 10:18:54;;;;;;;3.03;1.48;;;;;;;35.40;39.14;100228.66;4383120;32;34826;-90
2023/08/20 10:21:24;;;;;;;1.40;1.17;;;;;;;35.54;40.26;100226.72;4383394;32;32949;-90
2023/08/20 10:23:53;;;;;;;1.80;1.65;;;;;;;35.41;38.66;100230.34;4396524;32;34337;-90
2023/08/20 10:26:24;;;;;;;2.20;2.10;;;;;;;35.78;38.14;100222.34;4395480;32;33633;-90
2023/08/20 10:29:34;;;;;;;2.40;2.00;;;;;;;35.71;37.82;100218.81;4381510;32;33924;-90
2023/08/20 10:32:09;;;;;;;2.50;2.17;;;;;;;35.40;38.60;100216.84;4382672;32;33978;-90
2023/08/20 10:34:38;;;;;;;2.10;1.90;;;;;;;35.75;38.19;100220.06;4394227;32;33982;-90
2023/08/20 10:37:16;;;;;;;1.42;1.33;;;;;;;35.67;38.43;100212.09;4394705;32;33272;-90
2023/08/20 10:39:53;;;;;;;2.33;2.05;;;;;;;35.94;37.98;100218.25;4370078;32;33699;-89
2023/08/20 10:42:24;;;;;;;1.25;1.15;;;;;;;35.95;37.10;100208.12;4383965;32;33422;-90
2023/08/20 10:44:59;;;;;;;2.50;2.30;;;;;;;36.03;36.93;100202.34;4400087;32;32402;-90
2023/08/20 10:47:44;;;;;;;1.08;1.00;;;;;;;36.25;36.69;100206.37;4394965;32;34436;-90
2023/08/20 10:50:16;;;;;;;0.95;0.95;;;;;;;36.23;35.61;100211.28;4380942;32;33926;-90
2023/08/20 10:52:55;;;;;;;1.35;1.25;;;;;;;36.14;37.28;100202.47;4381393;32;32730;-90
2023/08/20 10:55:23;;;;;;;1.73;1.62;;;;;;;36.28;36.82;100200.44;4384108;32;32893;-90
2023/08/20 10:57:59;;;;;;;1.30;0.90;;;;;;;36.27;36.44;100204.22;4381285;32;33644;-90
2023/08/20 11:00:28;;;;;;;2.87;1.33;;;;;;;36.57;36.00;100201.66;4382834;32;32471;-90
2023/08/20 11:02:57;;;;;;;1.60;1.45;;;;;;;36.45;34.94;100197.13;4390873;32;33347;-90
2023/08/20 11:05:25;;;;;;;0.70;0.70;;;;;;;36.28;34.94;100197.69;4382900;32;33390;-89
2023/08/20 11:07:52;;;;;;;1.70;1.60;;;;;;;35.93;37.36;100205.56;4395491;32;33105;-90
2023/08/20 11:10:21;;;;;;;1.90;1.23;;;;;;;36.40;35.65;100190.38;4396108;32;35635;-90
2023/08/20 11:12:49;;;;;;;2.00;1.90;;;;;;;36.36;34.87;100200.13;4371783;32;32934;-89
2023/08/20 11:15:16;;;;;;;1.67;1.58;;;;;;;36.56;35.19;100193.66;4380378;32;32519;-90
2023/08/20 11:17:45;;;;;;;2.62;1.30;;;;;;;35.95;35.77;100199.87;4396567;32;33521;-89
2023/08/20 11:20:17;;;;;;;1.55;1.45;;;;;;;36.29;36.48;100193.03;4395580;32;33164;-90
2023/08/20 11:22:45;;;;;;;1.48;1.37;;;;;;;36.39;36.38;100194.19;4388611;32;33049;-90
2023/08/20 11:25:13;;;;;;;1.08;1.00;;;;;;;36.43;35.01;100199.28;4406195;32;33273;-90
2023/08/20 11:27:43;;;;;;;1.55;1.45;;;;;;;36.41;34.96;100192.03;4397027;32;33328;-90
2023/08/20 11:30:13;;;;;;;2.12;1.40;;;;;;;35.88;37.75;100199.87;4383855;32;33043;-90
2023/08/20 11:32:42;;;;;;;2.08;1.75;;;;;;;36.25;36.37;100198.12;4368467;32;32399;-90
2023/08/20 11:35:11;;;;;;;1.37;1.20;;;;;;;36.32;35.93;100193.44;4388085;32;32961;-90
2023/08/20 11:37:40;;;;;;;2.28;2.08;;;;;;;36.73;35.33;100188.38;4383103;32;33018;-90
2023/08/20 11:40:08;;;;;;;1.48;1.37;;;;;;;36.64;35.68;100185.06;4401032;32;34607;-90
2023/08/20 11:42:36;;;;;;;1.70;1.60;;;;;;;36.13;37.22;100184.28;4387416;32;32767;-90
2023/08/20 11:45:04;;;;;;;2.20;0.82;;;;;;;36.44;35.75;100173.47;4395171;32;32506;-90
2023/08/20 11:47:39;;;;;;;1.05;1.05;;;;;;;36.59;34.66;100174.75;4408386;32;33355;-90
2023/08/20 11:50:07;;;;;;;2.25;1.42;;;;;;;36.62;34.34;100185.31;4399018;32;33817;-90